DUB weather

Dublin Airport
Dublin, County Dublin, Ireland

Public forecast

Using degrees Celsius for public forecast. Weather courtesy of forecast.io.

Current aviation weather report (METAR) for Dublin Airport

Retrieved 2020/01/24 19:30 UTC (17 minutes ago):

EIDW 241930Z 21006KT 170V230 9999 BKN011 OVC013 06/04 Q1020 NOSIG

Aviation forecast (TAF) for Dublin Airport

Retrieved 2020/01/24 18:09 UTC (2 hours ago):

TAF EIDW 241700Z 2418/2518 23006KT 9999 BKN008 OVC010 PROB40 TEMPO 2418/2509 4000 -DZ